Time;durP1;ratioP1;P1;durP2;ratioP2;P2;SDS_P1;SDS_P2;PMS_P1;PMS_P2;Temp;Humidity;BMP_temperature;BMP_pressure;BME280_temperature;BME280_humidity;BME280_pressure;Samples;Min_cycle;Max_cycle;Signal;HPM_P1;HPM_P2
2022/11/22 00:00:27;;;;;;;1.40;0.63;;;20.80;48.30;;;;;;5073879;28;20195;-72
2022/11/22 00:02:55;;;;;;;4.13;0.70;;;20.50;47.40;;;;;;5073947;28;20204;-75
2022/11/22 00:05:22;;;;;;;2.77;0.70;;;20.40;45.60;;;;;;5073624;28;20231;-76
2022/11/22 00:07:50;;;;;;;2.57;0.70;;;20.10;46.90;;;;;;5060113;28;20542;-76
2022/11/22 00:10:18;;;;;;;2.47;0.60;;;20.50;49.10;;;;;;5066290;28;20228;-76
2022/11/22 00:12:45;;;;;;;1.30;0.63;;;21.50;48.50;;;;;;5072420;28;20205;-74
2022/11/22 00:15:13;;;;;;;3.23;0.70;;;21.60;43.90;;;;;;5068925;28;20183;-67
2022/11/22 00:17:41;;;;;;;1.57;0.60;;;21.60;45.00;;;;;;5059299;28;20621;-66
2022/11/22 00:20:13;;;;;;;1.70;0.70;;;21.30;44.20;;;;;;5065485;28;20202;-66
2022/11/22 00:22:40;;;;;;;2.23;0.60;;;21.60;45.40;;;;;;5068492;28;20202;-67
2022/11/22 00:25:08;;;;;;;1.27;0.63;;;21.70;41.80;;;;;;5070238;28;20188;-68
2022/11/22 00:27:35;;;;;;;4.43;1.60;;;21.30;39.90;;;;;;5073676;28;20645;-67
2022/11/22 00:30:03;;;;;;;1.60;0.60;;;21.40;41.70;;;;;;5073495;28;20186;-67
2022/11/22 00:32:31;;;;;;;2.50;0.63;;;21.60;39.70;;;;;;5073151;28;20233;-68
2022/11/22 00:34:58;;;;;;;2.37;0.83;;;21.90;40.50;;;;;;5072597;28;20210;-67
2022/11/22 00:37:25;;;;;;;1.70;0.50;;;22.60;41.80;;;;;;5073692;28;20180;-67
2022/11/22 00:39:53;;;;;;;2.13;0.60;;;22.40;35.90;;;;;;5072135;28;20226;-69
2022/11/22 00:42:20;;;;;;;3.70;0.90;;;22.20;35.60;;;;;;5073378;28;20197;-69
2022/11/22 00:44:48;;;;;;;1.07;0.60;;;22.40;38.50;;;;;;5072894;28;20684;-68
2022/11/22 00:47:15;;;;;;;1.63;0.80;;;22.40;35.80;;;;;;5072322;28;20191;-71
2022/11/22 00:49:42;;;;;;;2.47;0.50;;;22.30;36.90;;;;;;5072902;28;20180;-73
2022/11/22 00:52:10;;;;;;;1.67;0.53;;;22.40;38.80;;;;;;5072907;28;20543;-70
2022/11/22 00:54:37;;;;;;;2.10;0.67;;;22.60;35.00;;;;;;5072691;28;20227;-73
2022/11/22 00:57:05;;;;;;;0.93;0.50;;;23.50;39.20;;;;;;5072833;28;20183;-73
2022/11/22 00:59:32;;;;;;;0.93;0.60;;;23.50;33.10;;;;;;5073949;28;20182;-68
2022/11/22 01:01:59;;;;;;;2.33;0.50;;;22.90;35.70;;;;;;5072948;28;20214;-70
2022/11/22 01:04:27;;;;;;;2.90;0.70;;;22.80;36.20;;;;;;5072035;28;20259;-74
2022/11/22 01:06:54;;;;;;;2.77;0.80;;;22.70;31.50;;;;;;5073264;28;20657;-72
2022/11/22 01:09:23;;;;;;;1.77;0.60;;;22.80;32.20;;;;;;5087765;28;20554;-70
2022/11/22 01:11:50;;;;;;;1.13;0.57;;;22.80;37.80;;;;;;5073059;28;20267;-72
2022/11/22 01:14:19;;;;;;;1.57;0.57;;;22.80;34.80;;;;;;5072343;28;20179;-72
2022/11/22 01:16:47;;;;;;;1.03;0.50;;;23.00;37.60;;;;;;5072423;28;20263;-70
2022/11/22 01:19:14;;;;;;;1.10;0.47;;;22.70;33.00;;;;;;5072308;28;20539;-74
2022/11/22 01:21:42;;;;;;;2.90;0.83;;;23.10;34.10;;;;;;5072452;28;20176;-68
2022/11/22 01:24:13;;;;;;;2.23;0.70;;;23.00;32.80;;;;;;5072156;28;20211;-68
2022/11/22 01:26:40;;;;;;;1.50;0.70;;;22.70;32.50;;;;;;5072779;28;20192;-70
2022/11/22 01:29:08;;;;;;;2.47;0.63;;;22.50;32.60;;;;;;5072282;28;20371;-70
2022/11/22 01:31:35;;;;;;;0.63;0.40;;;22.80;34.00;;;;;;5059514;28;20188;-67
2022/11/22 01:34:05;;;;;;;2.17;0.70;;;23.10;35.20;;;;;;5070255;28;20661;-67
2022/11/22 01:36:33;;;;;;;2.00;0.70;;;23.00;33.80;;;;;;5072564;28;20218;-67
2022/11/22 01:39:00;;;;;;;1.90;0.50;;;23.10;32.50;;;;;;5071641;28;20206;-67
2022/11/22 01:41:27;;;;;;;1.10;0.50;;;23.60;35.80;;;;;;5072009;28;20193;-67
2022/11/22 01:43:55;;;;;;;2.43;0.73;;;23.60;32.80;;;;;;5071996;28;20554;-67
2022/11/22 01:46:57;;;;;;;2.57;0.83;;;23.30;31.20;;;;;;5070298;28;20259;-67
2022/11/22 01:49:35;;;;;;;2.10;0.73;;;23.50;30.00;;;;;;5060346;28;20195;-67
2022/11/22 01:52:17;;;;;;;1.30;0.97;;;23.40;30.60;;;;;;5072263;28;20180;-67
2022/11/22 01:54:51;;;;;;;1.47;0.47;;;23.50;29.50;;;;;;5063917;28;20594;-68
2022/11/22 01:57:23;;;;;;;1.67;0.57;;;23.10;30.30;;;;;;5071891;28;20168;-68
2022/11/22 02:00:01;;;;;;;0.77;0.43;;;23.90;31.80;;;;;;5087609;28;20237;-67
2022/11/22 02:02:28;;;;;;;0.97;0.63;;;23.60;30.00;;;;;;5055898;28;20229;-68
2022/11/22 02:04:58;;;;;;;2.20;0.50;;;23.70;30.20;;;;;;5071580;28;20318;-66
2022/11/22 02:07:35;;;;;;;1.60;0.50;;;23.70;28.40;;;;;;5071690;28;20184;-67
2022/11/22 02:10:02;;;;;;;1.37;0.73;;;23.60;32.00;;;;;;5071528;28;20194;-67
2022/11/22 02:12:30;;;;;;;2.20;0.50;;;23.60;31.30;;;;;;5072031;28;20180;-67
2022/11/22 02:14:59;;;;;;;5.00;0.60;;;23.80;33.30;;;;;;5071511;28;20198;-68
2022/11/22 02:17:26;;;;;;;2.37;0.57;;;24.10;31.50;;;;;;5071452;28;20195;-68
2022/11/22 02:19:55;;;;;;;5.57;0.73;;;23.70;30.20;;;;;;5071107;28;20187;-69
2022/11/22 02:23:06;;;;;;;3.80;0.90;;;23.30;30.00;;;;;;5072098;28;20258;-69
2022/11/22 02:25:47;;;;;;;0.73;0.50;;;23.50;31.10;;;;;;5045430;28;20210;-68
2022/11/22 02:28:14;;;;;;;3.70;0.57;;;24.10;30.90;;;;;;5071576;28;20183;-67
2022/11/22 02:30:42;;;;;;;0.93;0.43;;;24.00;31.10;;;;;;5075007;28;20528;-67
2022/11/22 02:33:10;;;;;;;1.30;0.70;;;23.60;28.70;;;;;;5071071;28;20180;-68
2022/11/22 02:35:39;;;;;;;0.67;0.50;;;23.40;28.70;;;;;;5071844;28;20278;-70
2022/11/22 02:38:12;;;;;;;1.40;0.60;;;23.20;28.70;;;;;;5067839;28;20180;-68
2022/11/22 02:40:59;;;;;;;0.63;0.37;;;23.20;28.50;;;;;;5065237;28;20187;-68
2022/11/22 02:43:42;;;;;;;4.67;0.83;;;23.50;30.90;;;;;;5069347;28;20212;-70
2022/11/22 02:46:14;;;;;;;1.53;0.53;;;24.10;30.40;;;;;;5066163;28;20230;-70
2022/11/22 02:48:43;;;;;;;1.20;0.50;;;23.80;30.20;;;;;;5071661;28;20184;-70
2022/11/22 02:51:15;;;;;;;2.97;0.50;;;23.90;29.40;;;;;;5071584;28;20172;-70
2022/11/22 02:53:52;;;;;;;1.67;0.60;;;24.20;31.10;;;;;;5071550;28;20176;-70
2022/11/22 02:56:20;;;;;;;2.17;0.90;;;24.40;30.60;;;;;;5071185;28;20185;-70
2022/11/22 02:58:47;;;;;;;0.47;0.47;;;24.10;29.70;;;;;;5075512;28;20190;-71
2022/11/22 03:01:14;;;;;;;2.17;0.60;;;24.20;29.80;;;;;;5074903;28;20188;-69
2022/11/22 03:03:42;;;;;;;0.70;0.40;;;24.50;32.40;;;;;;5075352;28;20223;-69
2022/11/22 03:06:09;;;;;;;2.07;0.70;;;24.60;29.10;;;;;;5075471;28;20225;-72
2022/11/22 03:08:37;;;;;;;1.13;0.43;;;24.40;27.80;;;;;;5074835;28;20188;-69
2022/11/22 03:11:04;;;;;;;1.80;0.63;;;24.60;27.30;;;;;;5075125;28;20184;-71
2022/11/22 03:13:31;;;;;;;3.90;0.67;;;24.20;27.30;;;;;;5067062;28;20180;-68
2022/11/22 03:15:59;;;;;;;2.93;0.70;;;24.30;29.30;;;;;;5054871;28;20177;-69
2022/11/22 03:18:26;;;;;;;1.07;0.60;;;24.30;30.00;;;;;;5055304;28;20181;-69
2022/11/22 03:20:54;;;;;;;5.30;0.73;;;24.60;29.40;;;;;;5055289;28;20188;-66
2022/11/22 03:23:21;;;;;;;1.67;0.70;;;24.40;27.80;;;;;;5053274;28;20220;-69
2022/11/22 03:25:49;;;;;;;3.07;0.60;;;24.20;30.00;;;;;;5053594;28;20681;-71
2022/11/22 03:28:16;;;;;;;11.43;1.03;;;24.40;30.70;;;;;;5055221;28;20181;-70
2022/11/22 03:30:44;;;;;;;2.23;0.63;;;24.60;30.40;;;;;;5055611;28;20349;-69
2022/11/22 03:33:11;;;;;;;1.20;0.83;;;24.80;31.40;;;;;;5072045;28;20207;-70
2022/11/22 03:35:38;;;;;;;2.37;0.50;;;24.50;28.90;;;;;;5074739;28;20179;-73
2022/11/22 03:38:06;;;;;;;0.80;0.57;;;24.60;29.90;;;;;;5074335;28;20175;-70
2022/11/22 03:40:34;;;;;;;6.70;1.10;;;24.70;31.60;;;;;;5071682;28;20706;-67
2022/11/22 03:43:02;;;;;;;1.27;0.67;;;24.90;32.00;;;;;;5074748;28;20668;-67
2022/11/22 03:45:30;;;;;;;1.90;0.73;;;25.10;28.90;;;;;;5074429;28;20187;-67
2022/11/22 03:47:57;;;;;;;2.57;0.70;;;25.10;30.50;;;;;;5074783;28;20276;-67
2022/11/22 03:50:25;;;;;;;4.30;0.87;;;25.30;30.00;;;;;;5074188;28;20180;-67
2022/11/22 03:52:52;;;;;;;3.63;0.60;;;25.30;32.00;;;;;;5074199;28;20229;-67
2022/11/22 03:55:20;;;;;;;1.47;0.70;;;25.50;29.80;;;;;;5074322;28;20184;-67
2022/11/22 03:57:47;;;;;;;3.57;0.83;;;25.60;29.70;;;;;;5074231;28;20184;-66
2022/11/22 04:00:15;;;;;;;3.47;0.80;;;25.20;28.50;;;;;;5073642;28;20246;-66
2022/11/22 04:02:42;;;;;;;2.57;0.70;;;25.20;30.10;;;;;;5074348;28;20176;-67
2022/11/22 04:05:10;;;;;;;3.17;0.57;;;24.90;28.60;;;;;;5073657;28;20314;-67
2022/11/22 04:07:38;;;;;;;2.23;0.50;;;24.70;29.00;;;;;;5063410;28;20177;-67
2022/11/22 04:10:06;;;;;;;0.60;0.47;;;24.30;29.30;;;;;;5057737;28;20180;-67
2022/11/22 04:12:33;;;;;;;3.37;0.70;;;25.00;28.60;;;;;;5074159;28;20267;-67
2022/11/22 04:15:07;;;;;;;4.03;0.63;;;25.00;29.90;;;;;;5073763;28;20212;-66
2022/11/22 04:17:43;;;;;;;3.30;0.50;;;24.90;28.70;;;;;;5073670;28;20184;-67
2022/11/22 04:23:18;;;;;;;4.47;0.80;;;25.10;29.20;;;;;;5071798;28;20230;-68
2022/11/22 04:25:54;;;;;;;1.70;0.43;;;25.70;31.50;;;;;;5057570;28;20666;-67
2022/11/22 04:28:23;;;;;;;2.53;0.60;;;25.50;29.10;;;;;;5065715;28;20187;-67
2022/11/22 04:33:36;;;;;;;4.17;0.90;;;24.80;28.40;;;;;;5067578;28;20191;-67
2022/11/22 04:36:04;;;;;;;1.33;0.53;;;25.00;30.40;;;;;;5066865;28;20183;-67
2022/11/22 04:38:31;;;;;;;3.00;0.57;;;25.20;31.70;;;;;;5073124;28;20250;-69
2022/11/22 04:40:59;;;;;;;3.33;0.70;;;25.10;29.20;;;;;;5060220;28;20189;-67
2022/11/22 04:46:15;;;;;;;3.03;0.60;;;24.40;28.30;;;;;;5049161;28;20314;-69
2022/11/22 04:48:43;;;;;;;1.60;0.60;;;24.60;28.80;;;;;;5053400;28;20168;-72
2022/11/22 04:53:59;;;;;;;3.17;0.70;;;25.00;30.60;;;;;;5064900;28;20564;-71
2022/11/22 04:56:27;;;;;;;3.80;0.63;;;25.00;30.10;;;;;;5053375;28;20207;-74
2022/11/22 04:58:54;;;;;;;3.10;0.70;;;25.20;29.30;;;;;;5052321;28;20177;-72
2022/11/22 05:01:22;;;;;;;4.67;0.83;;;25.20;30.90;;;;;;5061588;28;20184;-72
2022/11/22 05:03:49;;;;;;;4.20;0.60;;;25.50;29.80;;;;;;5072421;28;20767;-73
2022/11/22 05:06:17;;;;;;;3.07;0.70;;;25.40;29.60;;;;;;5072782;28;20755;-72
2022/11/22 05:08:44;;;;;;;2.80;0.83;;;25.40;29.70;;;;;;5072922;28;20180;-70
2022/11/22 05:11:11;;;;;;;4.40;0.60;;;25.20;28.90;;;;;;5062551;28;20258;-72
2022/11/22 05:13:42;;;;;;;1.67;0.50;;;25.10;29.50;;;;;;5072279;28;20216;-73
2022/11/22 05:16:13;;;;;;;2.17;0.50;;;25.00;28.40;;;;;;5072940;28;20262;-73
2022/11/22 05:18:42;;;;;;;1.10;0.50;;;24.60;29.60;;;;;;5072834;28;20184;-73
2022/11/22 05:21:12;;;;;;;1.23;0.60;;;24.80;29.50;;;;;;5071637;28;20180;-74
2022/11/22 05:23:55;;;;;;;1.60;0.73;;;25.00;29.90;;;;;;5072562;28;20218;-73
2022/11/22 05:26:31;;;;;;;2.23;0.67;;;25.10;28.90;;;;;;5071574;28;20187;-73
2022/11/22 05:29:02;;;;;;;4.80;0.70;;;24.90;29.60;;;;;;5087730;28;20574;-70
2022/11/22 05:31:31;;;;;;;3.47;0.80;;;25.20;30.50;;;;;;5072057;28;20183;-72
2022/11/22 05:33:59;;;;;;;2.13;0.90;;;25.10;29.60;;;;;;5072323;28;20228;-73
2022/11/22 05:36:30;;;;;;;3.20;0.70;;;25.00;29.50;;;;;;5071970;28;20641;-73
2022/11/22 05:38:57;;;;;;;2.70;0.60;;;24.90;29.90;;;;;;5072148;28;20994;-72
2022/11/22 05:41:25;;;;;;;1.20;0.60;;;24.90;30.90;;;;;;5087015;28;20208;-73
2022/11/22 05:43:55;;;;;;;5.33;0.67;;;24.60;29.30;;;;;;5071929;28;20215;-72
2022/11/22 05:46:26;;;;;;;1.60;0.50;;;24.40;29.80;;;;;;5072308;28;20184;-73
2022/11/22 05:48:56;;;;;;;1.17;0.47;;;24.50;31.10;;;;;;5071788;28;20186;-73
2022/11/22 05:51:26;;;;;;;2.23;0.80;;;24.60;29.90;;;;;;5086915;28;20581;-73
2022/11/22 05:53:54;;;;;;;4.87;0.63;;;24.20;29.50;;;;;;5072109;28;20649;-73
2022/11/22 05:56:23;;;;;;;0.93;0.60;;;24.00;30.30;;;;;;5072017;28;20697;-72
2022/11/22 05:58:52;;;;;;;4.40;0.50;;;23.70;29.80;;;;;;5071498;28;20278;-72
2022/11/22 06:01:22;;;;;;;2.43;0.50;;;23.80;30.80;;;;;;5087429;28;20180;-72
2022/11/22 06:03:51;;;;;;;1.47;0.40;;;23.80;30.90;;;;;;5071605;28;20635;-69
2022/11/22 06:06:19;;;;;;;1.57;0.70;;;23.70;31.90;;;;;;5071900;28;20237;-73
2022/11/22 06:08:47;;;;;;;4.53;0.93;;;23.60;31.90;;;;;;5071464;28;20195;-71
2022/11/22 06:11:20;;;;;;;1.67;0.53;;;23.70;32.20;;;;;;5071630;28;20270;-72
2022/11/22 06:13:50;;;;;;;2.27;0.70;;;24.10;32.00;;;;;;5070983;28;20680;-71
2022/11/22 06:16:18;;;;;;;1.93;0.50;;;24.30;33.00;;;;;;5071928;28;20192;-72
2022/11/22 06:18:46;;;;;;;1.80;0.50;;;24.30;31.00;;;;;;5071747;28;20179;-71
2022/11/22 06:21:17;;;;;;;4.17;0.80;;;24.30;31.80;;;;;;5062956;28;20212;-72
2022/11/22 06:23:45;;;;;;;6.37;0.80;;;24.10;32.50;;;;;;5050610;28;20247;-71
2022/11/22 06:26:15;;;;;;;2.13;0.60;;;24.00;31.70;;;;;;5051510;28;20223;-72
2022/11/22 06:28:44;;;;;;;3.03;0.70;;;24.00;32.90;;;;;;5051528;28;20188;-73
2022/11/22 06:31:14;;;;;;;1.83;0.70;;;24.00;32.20;;;;;;5068341;28;20176;-72
2022/11/22 06:33:43;;;;;;;3.60;0.70;;;23.90;34.00;;;;;;5079410;28;20180;-72
2022/11/22 06:36:25;;;;;;;3.53;0.63;;;23.70;32.80;;;;;;5078959;28;20644;-71
2022/11/22 06:38:53;;;;;;;2.93;0.63;;;23.60;33.50;;;;;;5080452;28;20163;-72
2022/11/22 06:41:26;;;;;;;4.00;0.70;;;23.40;32.80;;;;;;5078044;28;20198;-73
2022/11/22 06:43:56;;;;;;;1.40;0.47;;;23.20;33.50;;;;;;5080260;28;20303;-73
2022/11/22 06:46:26;;;;;;;4.33;0.63;;;23.20;33.50;;;;;;5078521;28;20233;-73
2022/11/22 06:48:54;;;;;;;0.93;0.40;;;23.30;35.00;;;;;;5078350;28;20247;-73
2022/11/22 06:51:24;;;;;;;3.93;0.80;;;23.40;34.50;;;;;;5077717;28;20190;-70
2022/11/22 06:53:56;;;;;;;4.97;0.53;;;23.40;34.40;;;;;;5078213;28;20178;-71
2022/11/22 06:56:27;;;;;;;1.97;0.90;;;23.30;34.70;;;;;;5078048;28;20167;-71
2022/11/22 06:58:55;;;;;;;2.50;0.50;;;23.10;34.70;;;;;;5077928;28;20176;-73
2022/11/22 07:01:28;;;;;;;2.90;0.80;;;22.90;35.30;;;;;;5060431;28;20586;-74
2022/11/22 07:03:58;;;;;;;1.67;0.57;;;22.80;35.60;;;;;;5093394;28;20231;-75
2022/11/22 07:06:34;;;;;;;1.70;0.50;;;22.50;35.80;;;;;;5077608;28;20332;-74
2022/11/22 07:09:03;;;;;;;5.13;0.90;;;22.70;36.20;;;;;;5078073;28;20179;-75
2022/11/22 07:11:32;;;;;;;0.83;0.50;;;22.80;36.20;;;;;;5077878;28;20190;-72
2022/11/22 07:14:01;;;;;;;7.03;0.80;;;22.90;36.30;;;;;;5062573;28;20176;-70
2022/11/22 07:16:29;;;;;;;1.27;0.47;;;22.90;36.30;;;;;;5057366;28;20181;-73
2022/11/22 07:18:59;;;;;;;2.27;0.77;;;22.70;36.50;;;;;;5057079;28;20234;-74
2022/11/22 07:21:27;;;;;;;1.50;0.60;;;22.50;36.50;;;;;;5057090;28;20179;-72
2022/11/22 07:23:56;;;;;;;2.57;0.50;;;22.40;36.70;;;;;;5057587;28;20208;-74
2022/11/22 07:26:25;;;;;;;1.93;0.63;;;22.40;37.50;;;;;;5053604;28;20173;-71
2022/11/22 07:28:53;;;;;;;0.73;0.50;;;22.30;37.50;;;;;;5061033;28;20203;-73
2022/11/22 07:31:21;;;;;;;1.63;0.60;;;22.10;38.00;;;;;;5059827;28;20230;-73
2022/11/22 07:33:49;;;;;;;1.13;0.60;;;22.10;39.20;;;;;;5054241;28;20717;-70
2022/11/22 07:36:20;;;;;;;1.13;0.50;;;22.20;38.00;;;;;;5058814;28;20172;-70
2022/11/22 07:38:49;;;;;;;3.83;0.70;;;22.20;38.70;;;;;;5058132;28;20180;-70
2022/11/22 07:41:18;;;;;;;1.23;0.77;;;22.30;39.00;;;;;;5057992;28;20219;-72
2022/11/22 07:43:46;;;;;;;4.93;0.93;;;22.10;39.40;;;;;;5057249;28;20262;-70
2022/11/22 07:46:28;;;;;;;3.97;0.97;;;21.80;40.00;;;;;;5054448;28;20513;-73
2022/11/22 07:48:56;;;;;;;2.27;0.83;;;21.60;40.40;;;;;;5055754;28;20283;-72
2022/11/22 07:51:25;;;;;;;1.90;0.83;;;21.40;41.20;;;;;;5071671;28;20230;-72
2022/11/22 07:53:54;;;;;;;1.73;0.60;;;21.10;42.00;;;;;;5074279;28;20580;-72
2022/11/22 07:56:22;;;;;;;2.73;0.97;;;21.10;43.00;;;;;;5073786;28;20196;-72
2022/11/22 07:58:49;;;;;;;1.20;0.70;;;21.30;43.00;;;;;;5072721;28;20183;-72
2022/11/22 08:01:19;;;;;;;1.83;0.80;;;21.30;42.00;;;;;;5074450;28;20183;-72
2022/11/22 08:03:47;;;;;;;0.83;0.50;;;21.30;43.70;;;;;;5073434;28;20322;-70
2022/11/22 08:06:16;;;;;;;1.37;0.70;;;21.20;44.00;;;;;;5074271;28;20184;-71
2022/11/22 08:08:44;;;;;;;4.37;0.90;;;21.10;44.20;;;;;;5072420;28;20175;-72
2022/11/22 08:11:12;;;;;;;1.20;0.50;;;20.80;44.70;;;;;;5073821;28;20263;-70
2022/11/22 08:13:41;;;;;;;2.97;0.70;;;20.80;45.60;;;;;;5074068;28;20180;-72
2022/11/22 08:16:14;;;;;;;2.57;0.83;;;20.80;46.00;;;;;;5073863;28;20183;-71
2022/11/22 08:18:47;;;;;;;1.90;0.70;;;20.80;47.40;;;;;;5073337;28;20186;-71
2022/11/22 08:21:16;;;;;;;0.97;0.70;;;20.50;46.40;;;;;;5075219;28;20511;-71
2022/11/22 08:23:45;;;;;;;1.97;0.60;;;20.30;47.70;;;;;;5067816;28;20218;-71
2022/11/22 08:26:16;;;;;;;3.23;0.60;;;20.20;49.10;;;;;;5051201;28;20187;-70
2022/11/22 08:28:45;;;;;;;1.70;0.80;;;20.10;50.10;;;;;;5055918;28;20661;-72
2022/11/22 08:31:15;;;;;;;5.20;0.90;;;19.90;50.20;;;;;;5053843;28;20177;-73
2022/11/22 08:33:43;;;;;;;3.10;0.90;;;19.90;52.40;;;;;;5051748;28;20172;-72
2022/11/22 08:36:11;;;;;;;4.60;1.10;;;19.70;52.50;;;;;;5053479;28;20190;-72
2022/11/22 08:38:39;;;;;;;3.80;0.80;;;19.60;53.70;;;;;;5059446;28;20168;-72
2022/11/22 08:41:07;;;;;;;2.97;0.67;;;19.50;54.90;;;;;;5073387;28;20198;-73
2022/11/22 08:43:35;;;;;;;2.30;0.70;;;19.50;54.40;;;;;;5073508;28;20215;-72
2022/11/22 08:46:03;;;;;;;1.60;0.90;;;19.50;54.20;;;;;;5073624;28;20174;-71
2022/11/22 08:48:33;;;;;;;2.20;0.70;;;19.40;54.70;;;;;;5072790;28;20196;-72
2022/11/22 08:51:03;;;;;;;1.37;0.60;;;19.40;56.10;;;;;;5073318;28;20172;-71
2022/11/22 08:53:34;;;;;;;4.57;0.93;;;19.20;56.70;;;;;;5072905;28;20186;-72
2022/11/22 08:56:03;;;;;;;3.87;1.00;;;19.20;58.00;;;;;;5072335;28;20233;-73
2022/11/22 08:58:32;;;;;;;3.90;0.80;;;19.10;59.20;;;;;;5072853;28;20203;-73
2022/11/22 09:01:08;;;;;;;0.83;0.60;;;19.10;60.20;;;;;;5073156;28;20668;-73
2022/11/22 09:03:37;;;;;;;5.30;1.10;;;19.00;61.70;;;;;;5072575;28;20215;-74
2022/11/22 09:06:07;;;;;;;4.53;1.20;;;19.00;62.00;;;;;;5073152;28;20183;-71
2022/11/22 09:08:36;;;;;;;5.17;0.87;;;19.00;62.30;;;;;;5072866;28;20184;-73
2022/11/22 09:11:09;;;;;;;2.10;0.97;;;18.90;64.80;;;;;;5088391;28;20233;-71
2022/11/22 09:13:37;;;;;;;1.40;0.80;;;18.80;65.50;;;;;;5073178;28;20172;-73
2022/11/22 09:16:11;;;;;;;2.93;0.70;;;18.70;67.20;;;;;;5072926;28;20176;-73
2022/11/22 09:18:39;;;;;;;3.53;1.10;;;18.70;69.50;;;;;;5072257;28;20266;-73
2022/11/22 09:21:13;;;;;;;3.27;0.90;;;18.60;69.20;;;;;;5072907;28;20176;-72
2022/11/22 09:23:42;;;;;;;1.33;0.80;;;18.60;70.50;;;;;;5067752;28;20219;-72
2022/11/22 09:26:13;;;;;;;2.03;0.90;;;18.50;73.60;;;;;;5066120;28;20190;-71
2022/11/22 09:28:41;;;;;;;3.47;0.90;;;18.40;75.80;;;;;;5064842;28;20176;-73
2022/11/22 09:31:15;;;;;;;1.70;0.70;;;18.30;77.30;;;;;;5053896;28;20633;-72
2022/11/22 09:33:46;;;;;;;1.27;0.63;;;18.20;78.70;;;;;;5061443;28;20238;-72
2022/11/22 09:36:32;;;;;;;2.27;0.70;;;18.10;82.20;;;;;;5073412;28;20650;-70
2022/11/22 09:38:59;;;;;;;1.63;0.90;;;18.00;85.20;;;;;;5072491;28;20729;-70
2022/11/22 09:42:03;;;;;;;5.03;1.23;;;18.00;90.30;;;;;;5073336;28;20657;-72
2022/11/22 09:44:58;;;;;;;5.63;1.03;;;17.90;90.40;;;;;;5073248;28;20222;-73
2022/11/22 09:47:53;;;;;;;3.23;1.20;;;17.80;94.10;;;;;;5073367;28;20187;-72
2022/11/22 09:50:45;;;;;;;1.93;1.00;;;17.70;96.00;;;;;;5089167;28;20603;-72
2022/11/22 09:53:23;;;;;;;2.80;1.17;;;17.70;96.80;;;;;;5059267;28;20176;-72
2022/11/22 09:55:57;;;;;;;3.20;1.00;;;17.60;99.80;;;;;;5072937;28;20186;-71
2022/11/22 09:58:34;;;;;;;1.83;0.90;;;17.50;99.90;;;;;;5073693;28;20191;-71
2022/11/22 10:01:19;;;;;;;2.43;0.80;;;17.50;99.90;;;;;;5073251;28;20176;-70
2022/11/22 10:03:52;;;;;;;2.27;0.63;;;17.40;99.90;;;;;;5071275;28;20593;-70
2022/11/22 10:06:23;;;;;;;4.50;0.87;;;17.40;99.90;;;;;;5072907;28;20187;-70
2022/11/22 10:09:01;;;;;;;1.90;0.77;;;17.40;99.90;;;;;;5073193;28;20229;-72
2022/11/22 10:11:57;;;;;;;1.87;0.70;;;17.30;99.90;;;;;;5067736;28;20252;-70
2022/11/22 10:14:48;;;;;;;5.43;0.80;;;17.30;99.90;;;;;;5072892;28;20191;-69
2022/11/22 10:17:34;;;;;;;1.90;0.70;;;17.20;99.90;;;;;;5073138;28;20180;-73
2022/11/22 10:20:28;;;;;;;1.57;0.70;;;17.20;99.90;;;;;;5072821;28;20176;-73
2022/11/22 10:22:58;;;;;;;2.07;0.80;;;17.10;99.90;;;;;;5073057;28;20180;-73
2022/11/22 10:26:04;;;;;;;3.53;0.80;;;17.00;99.90;;;;;;5072605;28;20184;-72
2022/11/22 10:28:36;;;;;;;0.77;0.50;;;17.00;99.90;;;;;;5056586;28;20568;-72
2022/11/22 10:31:17;;;;;;;1.43;0.60;;;16.90;99.90;;;;;;5050849;28;20181;-72
2022/11/22 10:34:14;;;;;;;1.80;0.77;;;16.90;99.90;;;;;;5060198;28;20258;-73
2022/11/22 10:36:53;;;;;;;4.47;0.73;;;16.90;99.90;;;;;;5072781;28;20183;-73
2022/11/22 10:39:33;;;;;;;2.83;0.80;;;16.80;99.90;;;;;;5073043;28;20179;-74
2022/11/22 10:42:28;;;;;;;1.30;0.60;;;16.70;99.90;;;;;;5072773;28;20649;-73
2022/11/22 10:45:37;;;;;;;5.53;0.97;;;16.70;99.90;;;;;;5072528;28;20741;-73
2022/11/22 10:48:35;;;;;;;2.87;0.90;;;16.80;99.90;;;;;;5064297;28;20187;-73
2022/11/22 10:51:40;;;;;;;1.37;0.67;;;16.70;99.90;;;;;;5033389;28;20275;-73
2022/11/22 10:54:28;;;;;;;2.23;0.80;;;16.70;99.90;;;;;;5049456;28;20203;-72
2022/11/22 10:57:31;;;;;;;2.27;0.63;;;16.60;99.90;;;;;;5072565;28;20650;-74
2022/11/22 11:00:21;;;;;;;2.97;0.80;;;16.60;99.90;;;;;;5038048;28;20199;-72
2022/11/22 11:03:22;;;;;;;2.57;0.63;;;16.50;99.90;;;;;;5088064;28;20333;-73
2022/11/22 11:06:05;;;;;;;2.27;0.83;;;16.50;99.90;;;;;;5072531;28;20190;-70
2022/11/22 11:08:48;;;;;;;1.83;0.77;;;16.40;99.90;;;;;;5072945;28;20180;-72
2022/11/22 11:11:16;;;;;;;1.27;0.60;;;16.30;99.90;;;;;;5072563;28;20180;-73
2022/11/22 11:13:52;;;;;;;2.10;0.90;;;16.30;99.90;;;;;;5055347;28;20184;-71
2022/11/22 11:16:29;;;;;;;1.00;0.67;;;16.30;99.90;;;;;;5072407;28;20641;-71
2022/11/22 11:19:02;;;;;;;3.50;1.20;;;16.30;99.90;;;;;;5074674;28;20619;-70
2022/11/22 11:21:30;;;;;;;2.97;1.20;;;16.20;99.90;;;;;;5092035;28;20178;-71
2022/11/22 11:23:58;;;;;;;2.27;0.80;;;16.20;99.90;;;;;;5075953;28;20674;-71
2022/11/22 11:26:33;;;;;;;3.00;0.83;;;16.10;99.90;;;;;;5075914;28;20186;-73
2022/11/22 11:29:18;;;;;;;1.60;0.70;;;16.10;99.90;;;;;;5076248;28;20206;-71
2022/11/22 11:31:51;;;;;;;3.30;0.90;;;16.10;99.90;;;;;;5075818;28;20215;-72
2022/11/22 11:34:28;;;;;;;1.53;0.90;;;16.10;99.90;;;;;;5075910;28;20180;-70
2022/11/22 11:36:57;;;;;;;2.23;1.10;;;16.00;99.90;;;;;;5076128;28;20235;-70
2022/11/22 11:39:30;;;;;;;4.07;1.27;;;16.00;99.90;;;;;;5056856;28;20179;-68
2022/11/22 11:41:59;;;;;;;1.43;1.10;;;16.00;99.90;;;;;;5075842;28;20653;-69
2022/11/22 11:44:30;;;;;;;1.17;0.70;;;16.00;99.90;;;;;;5075686;28;20215;-71
2022/11/22 11:46:58;;;;;;;2.27;1.20;;;16.00;99.90;;;;;;5075611;28;20261;-70
2022/11/22 11:49:28;;;;;;;2.73;0.90;;;15.90;99.90;;;;;;5075712;28;20175;-70
2022/11/22 11:52:14;;;;;;;4.73;0.90;;;15.90;99.90;;;;;;5075455;28;20180;-70
2022/11/22 11:54:44;;;;;;;0.90;0.70;;;15.80;99.90;;;;;;5075765;28;20271;-70
2022/11/22 11:57:21;;;;;;;3.30;0.90;;;15.80;99.90;;;;;;5075793;28;20506;-69
2022/11/22 11:59:53;;;;;;;3.43;1.10;;;15.70;99.90;;;;;;5075365;28;20180;-69
2022/11/22 12:02:39;;;;;;;3.47;0.80;;;15.60;99.90;;;;;;5075112;28;20275;-70
2022/11/22 12:05:31;;;;;;;2.53;0.90;;;15.60;99.90;;;;;;5075073;28;20285;-69
2022/11/22 12:08:02;;;;;;;3.53;0.80;;;15.50;99.90;;;;;;5075412;28;20179;-70
2022/11/22 12:10:36;;;;;;;3.97;0.90;;;15.40;99.90;;;;;;5075733;28;20183;-70
2022/11/22 12:13:09;;;;;;;2.67;0.80;;;15.40;99.90;;;;;;5076792;28;20638;-72
2022/11/22 12:15:43;;;;;;;3.30;1.00;;;15.30;99.90;;;;;;5075788;28;20274;-70
2022/11/22 12:18:55;;;;;;;2.00;0.60;;;15.20;99.90;;;;;;5091179;28;20249;-72
2022/11/22 12:21:50;;;;;;;2.37;0.90;;;15.20;99.90;;;;;;5069782;28;20188;-71
2022/11/22 12:24:32;;;;;;;1.30;0.90;;;15.10;99.90;;;;;;5074758;28;20214;-71
2022/11/22 12:27:00;;;;;;;4.20;1.00;;;15.00;99.90;;;;;;5075370;28;20188;-71
2022/11/22 12:29:29;;;;;;;3.20;0.93;;;15.00;99.90;;;;;;5057045;28;20183;-70
2022/11/22 12:32:07;;;;;;;3.10;1.10;;;14.90;99.90;;;;;;5075031;28;20179;-71
2022/11/22 12:35:11;;;;;;;3.27;0.97;;;14.80;99.90;;;;;;5090473;28;20202;-71
2022/11/22 12:37:44;;;;;;;1.77;0.90;;;14.90;99.90;;;;;;5032072;28;20690;-70
2022/11/22 12:40:26;;;;;;;2.87;0.90;;;14.90;99.90;;;;;;5067363;28;20269;-70
2022/11/22 12:42:57;;;;;;;2.17;0.80;;;14.90;99.90;;;;;;5090322;28;20522;-70
2022/11/22 12:45:28;;;;;;;3.87;1.13;;;14.80;99.90;;;;;;5074535;28;20244;-71
2022/11/22 12:48:02;;;;;;;4.07;0.97;;;14.60;99.90;;;;;;5073474;28;20210;-71
2022/11/22 12:50:52;;;;;;;1.50;0.77;;;14.50;99.90;;;;;;5074049;28;20213;-70
2022/11/22 12:53:32;;;;;;;2.70;0.93;;;14.40;99.90;;;;;;5075080;28;20190;-70
2022/11/22 12:56:25;;;;;;;1.47;0.80;;;14.40;99.90;;;;;;5074923;28;20203;-70
2022/11/22 12:59:10;;;;;;;7.13;1.00;;;14.30;99.90;;;;;;5074630;28;20198;-72
2022/11/22 13:01:57;;;;;;;2.13;1.10;;;14.20;99.90;;;;;;5076552;28;20197;-73
2022/11/22 13:04:38;;;;;;;3.20;1.20;;;14.00;99.90;;;;;;5075449;28;20237;-73
2022/11/22 13:07:35;;;;;;;4.73;1.10;;;14.00;99.90;;;;;;5090734;28;20183;-73
2022/11/22 13:10:27;;;;;;;4.13;1.00;;;13.80;99.90;;;;;;5071772;28;20196;-73
2022/11/22 13:12:58;;;;;;;1.43;0.97;;;13.70;99.90;;;;;;5074574;28;20184;-73
2022/11/22 13:15:32;;;;;;;4.30;1.17;;;13.70;99.90;;;;;;5074318;28;20184;-73
2022/11/22 13:18:01;;;;;;;2.33;0.90;;;13.80;99.90;;;;;;5074507;28;20175;-72
2022/11/22 13:20:36;;;;;;;1.73;1.00;;;13.80;99.90;;;;;;5074379;28;20179;-73
2022/11/22 13:23:18;;;;;;;2.07;1.07;;;13.90;99.90;;;;;;5074569;28;20170;-71
2022/11/22 13:26:12;;;;;;;2.33;0.90;;;13.90;99.90;;;;;;5074180;28;20183;-72
2022/11/22 13:28:41;;;;;;;2.30;0.90;;;13.90;99.90;;;;;;5074039;28;20178;-72